Wind From: 10-12-2017 19:04 Until: 11-12-2017 16:00 warning for: Wind Level: Orange info button

Power and phone distribution networks may be disrupted for relatively long periods., Roofs and chimneys can be damaged. , Tree branches may break. , Vehicles can be deported. , Traffic may be disrupted, particularly on secondary roads in forest areas. Limit your trips. , Limit your speed in highway driving, especially if you drive a vehicle or hitch sensitive to wind. , Do not go for walks in forests or along the coast., In town, be vigilant against possible falling objects., Do not work on roofs and do not touch any electrical line fallen on the ground., Store or secure sensitive objects to wind or likely to be damaged., Always install power generators outside buildings. 


Meteo18 Weather Cam more information Meteo18 Weather Cam


Thunder radar more information blitzortung!


Rain radar more information rain snow radar


Visit our other weather sites:

Template documentation
and downloads

And another site



Weather Underground History page Text

Daily Summary for July 25, 2017 Units:  English    Metric   Both
« Previous Day
Next Day »
Daily Weekly Monthly Yearly Custom
  High: Low: Average:
Temperature: 70.3 °F 58.3 °F 63.3 °F
Dew Point: 58.5 °F 55.2 °F 56.8 °F
Humidity: 94 % 59 % 80 %
Wind Speed: 10 mph 0 mph 3.2 mph
Wind Gust: 20 mph - -
Wind:- - WNW
Pressure: 30.1 in 30 in -
Precipitation: 0.01 in    
Historical Graphs
 
 
Tabular Data for July 25, 2017
Time Temperature Dew Point Pressure Wind Wind Speed Wind Gust Humidity Rainfall Rate (Hourly)
00:02 60.1 °F 56.1 °F 30.1 in WNW 6 mph 12 mph 87 % 0 in
00:12 59.7 °F 56.1 °F 30.1 in WNW 2 mph 15 mph 88 % 0 in
00:17 59.9 °F 56.3 °F 30.1 in WNW 6 mph 14 mph 88 % 0 in
00:22 59.9 °F 56.3 °F 30.1 in WNW 5 mph 10 mph 88 % 0 in
00:32 60.1 °F 56.1 °F 30.1 in NW 3 mph 11 mph 87 % 0 in
00:37 60.1 °F 56.1 °F 30.1 in WNW 5 mph 11 mph 87 % 0 in
00:42 60.3 °F 56.1 °F 30.1 in West 4 mph 11 mph 86 % 0 in
00:47 60.3 °F 56.1 °F 30.1 in NNW 1 mph 11 mph 86 % 0 in
00:57 60.6 °F 55.8 °F 30.1 in WNW 3 mph 20 mph 84 % 0 in
01:02 60.6 °F 55.8 °F 30.1 in WNW 10 mph 20 mph 84 % 0 in
01:12 60.4 °F 56.3 °F 30.1 in WNW 4 mph 20 mph 86 % 0 in
01:17 60.4 °F 56.3 °F 30.1 in West 6 mph 11 mph 86 % 0 in
01:22 60.4 °F 56.3 °F 30.1 in WNW 8 mph 11 mph 86 % 0 in
01:32 60.4 °F 56.3 °F 30.1 in WNW 1 mph 8 mph 86 % 0 in
01:37 60.4 °F 56.3 °F 30.1 in NW 2 mph 9 mph 86 % 0 in
01:42 60.3 °F 56.1 °F 30.1 in NW 2 mph 9 mph 86 % 0 in
01:52 60.3 °F 56.1 °F 30.1 in NW 1 mph 9 mph 86 % 0 in
01:57 60.3 °F 56.1 °F 30.1 in WNW 5 mph 7 mph 86 % 0 in
02:02 60.3 °F 56.1 °F 30.1 in NNW 2 mph 7 mph 86 % 0 in
02:12 60.3 °F 56.1 °F 30.1 in WNW 2 mph 7 mph 86 % 0 in
02:17 60.3 °F 56.1 °F 30.1 in WNW 1 mph 6 mph 86 % 0 in
02:22 60.3 °F 56.1 °F 30.1 in WNW 2 mph 6 mph 86 % 0 in
02:32 60.3 °F 56.1 °F 30.1 in NW 1 mph 7 mph 86 % 0 in
02:42 60.3 °F 55.8 °F 30.1 in NNW 5 mph 9 mph 85 % 0 in
02:47 60.4 °F 55.9 °F 30.1 in West 4 mph 10 mph 85 % 0 in
02:52 60.4 °F 55.9 °F 30.1 in NNW 3 mph 10 mph 85 % 0 in
02:57 60.3 °F 55.8 °F 30.1 in WNW 3 mph 11 mph 85 % 0 in
03:02 60.3 °F 55.8 °F 30.1 in Calm   11 mph 85 % 0 in
03:12 60.4 °F 55.6 °F 30.1 in West 4 mph 8 mph 84 % 0 in
03:17 60.4 °F 55.6 °F 30.1 in NW 3 mph 9 mph 84 % 0 in
03:32 60.3 °F 55.8 °F 30.1 in WNW 3 mph 9 mph 85 % 0 in
03:42 60.3 °F 56.1 °F 30.1 in West 3 mph 9 mph 86 % 0 in
03:47 60.1 °F 55.9 °F 30.1 in WNW 7 mph 10 mph 86 % 0 in
03:52 60.1 °F 55.9 °F 30.1 in WNW 6 mph 10 mph 86 % 0 in
03:57 60.1 °F 56.1 °F 30.1 in WNW 5 mph 10 mph 87 % 0 in
04:02 59.9 °F 55.9 °F 30.1 in NW 3 mph 10 mph 87 % 0 in
04:12 59.7 °F 56.1 °F 30.1 in WNW 8 mph 10 mph 88 % 0 in
04:17 59.5 °F 55.9 °F 30.1 in NW 5 mph 10 mph 88 % 0 in
04:22 59.4 °F 56.1 °F 30.1 in WNW 3 mph 10 mph 89 % 0 in
04:32 59 °F 56.1 °F 30.1 in WNW 3 mph 9 mph 90 % 0 in
04:37 58.8 °F 56.1 °F 30.1 in WNW 6 mph 10 mph 91 % 0 in
04:42 58.6 °F 55.9 °F 30 in WNW 4 mph 10 mph 91 % 0 in
04:52 58.5 °F 56.1 °F 30 in WNW 1 mph 9 mph 92 % 0 in
05:02 58.3 °F 56.3 °F 30 in WNW 1 mph 6 mph 93 % 0.01 in
05:07 58.3 °F 56.3 °F 30 in WNW 1 mph 5 mph 93 % 0.01 in
05:12 58.3 °F 56.3 °F 30 in West 1 mph 5 mph 93 % 0.01 in
05:17 58.3 °F 56.3 °F 30 in WSW 1 mph 3 mph 93 % 0.01 in
05:22 58.3 °F 56.3 °F 30 in West 1 mph 3 mph 93 % 0.01 in
05:32 58.3 °F 56.3 °F 30 in West 1 mph 3 mph 93 % 0.01 in
05:42 58.3 °F 56.3 °F 30 in Calm   4 mph 93 % 0.01 in
05:52 58.3 °F 56.3 °F 30 in West 1 mph 4 mph 93 % 0.01 in
06:02 58.3 °F 56.3 °F 30 in Calm   4 mph 93 % 0 in
06:12 58.3 °F 56.5 °F 30 in Calm   2 mph 94 % 0 in
06:17 58.3 °F 56.5 °F 30 in Calm   4 mph 94 % 0 in
06:22 58.3 °F 56.5 °F 30 in Calm   4 mph 94 % 0 in
06:27 58.5 °F 56.7 °F 30 in SW 1 mph 2 mph 94 % 0 in
06:32 58.5 °F 56.7 °F 30 in West 3 mph 3 mph 94 % 0 in
06:37 58.6 °F 56.7 °F 30 in WNW 1 mph 2 mph 93 % 0 in
06:42 58.6 °F 56.7 °F 30 in West 3 mph 5 mph 93 % 0 in
06:52 58.8 °F 56.8 °F 30 in West 1 mph 5 mph 93 % 0 in
06:57 58.8 °F 56.8 °F 30 in West 1 mph 7 mph 93 % 0 in
07:02 58.8 °F 56.8 °F 30 in WNW 2 mph 7 mph 93 % 0 in
07:07 59 °F 57 °F 30 in WSW 1 mph 7 mph 93 % 0 in
07:12 59 °F 57 °F 30 in WNW 4 mph 4 mph 93 % 0 in
07:17 59.2 °F 57.2 °F 30 in WNW 5 mph 5 mph 93 % 0 in
07:22 59.2 °F 57.2 °F 30 in North 1 mph 6 mph 93 % 0 in
07:32 59.4 °F 57.4 °F 30 in WNW 4 mph 6 mph 93 % 0 in
07:42 59.5 °F 57.6 °F 30 in WNW 1 mph 7 mph 93 % 0 in
07:52 59.5 °F 57.2 °F 30 in WNW 1 mph 5 mph 92 % 0 in
08:02 59.7 °F 57.4 °F 30 in Calm   8 mph 92 % 0 in
08:12 59.9 °F 57.6 °F 30 in NW 5 mph 8 mph 92 % 0 in
08:17 59.9 °F 57.6 °F 30 in WNW 4 mph 8 mph 92 % 0 in
08:22 59.9 °F 57.6 °F 30 in Calm   8 mph 92 % 0 in
08:27 59.9 °F 57.6 °F 30 in WNW 3 mph 8 mph 92 % 0 in
08:32 60.1 °F 57.7 °F 30 in NNW 5 mph 8 mph 92 % 0 in
08:37 60.1 °F 57.4 °F 30 in West 2 mph 8 mph 91 % 0 in
08:42 60.1 °F 57.4 °F 30 in WNW 2 mph 9 mph 91 % 0 in
08:47 60.1 °F 57.4 °F 30 in West 2 mph 9 mph 91 % 0 in
08:57 61.2 °F 58.5 °F 30 in WNW 5 mph 11 mph 91 % 0 in
09:02 61.3 °F 58.1 °F 30 in West 5 mph 9 mph 89 % 0 in
09:12 61.3 °F 58.1 °F 30 in WNW 3 mph 10 mph 89 % 0 in
09:17 61.3 °F 57.7 °F 30 in WNW 4 mph 10 mph 88 % 0 in
09:22 61.3 °F 57.7 °F 30 in NW 3 mph 10 mph 88 % 0 in
09:32 61.5 °F 57.9 °F 30 in WNW 1 mph 12 mph 88 % 0 in
09:37 61.9 °F 57.9 °F 30 in WNW 4 mph 12 mph 87 % 0 in
09:42 61.5 °F 57.6 °F 30 in WNW 7 mph 10 mph 87 % 0 in
09:47 61.5 °F 57.6 °F 30 in NW 2 mph 10 mph 87 % 0 in
10:02 62.1 °F 57.6 °F 30 in WNW 6 mph 10 mph 85 % 0 in
10:12 62.2 °F 57.7 °F 30 in West 1 mph 10 mph 85 % 0 in
10:17 62.4 °F 57.9 °F 30 in NW 4 mph 10 mph 85 % 0 in
10:22 62.4 °F 57.2 °F 30 in WNW 2 mph 8 mph 83 % 0 in
10:32 63 °F 57 °F 30 in WNW 2 mph 11 mph 81 % 0 in
10:42 63.7 °F 57 °F 30 in WNW 5 mph 12 mph 79 % 0 in
10:47 63.7 °F 57 °F 30 in West 6 mph 12 mph 79 % 0 in
10:52 63.9 °F 56.8 °F 30 in WNW 6 mph 13 mph 78 % 0 in
10:57 63.9 °F 56.8 °F 30 in WNW 9 mph 13 mph 78 % 0 in
11:02 63.7 °F 56.3 °F 30 in WNW 5 mph 11 mph 77 % 0 in
11:12 63.3 °F 56.7 °F 30 in NW 10 mph 14 mph 79 % 0 in
11:17 63.7 °F 57.4 °F 30 in WNW 2 mph 14 mph 80 % 0 in
11:22 64 °F 57.4 °F 30 in NNE 2 mph 12 mph 79 % 0 in
11:27 64.4 °F 57.4 °F 30 in WNW 5 mph 12 mph 78 % 0 in
11:32 64.8 °F 57.4 °F 30 in WNW 2 mph 9 mph 77 % 0 in
11:42 64 °F 56.7 °F 30 in NW 4 mph 13 mph 77 % 0 in
11:47 64 °F 56.7 °F 30 in WNW 6 mph 13 mph 77 % 0 in
11:52 63.7 °F 56.7 °F 30 in NNW 2 mph 13 mph 78 % 0 in
12:02 62.8 °F 56.8 °F 30 in WNW 3 mph 10 mph 81 % 0 in
12:12 62.4 °F 57.6 °F 30 in WNW 2 mph 10 mph 84 % 0 in
12:17 62.8 °F 57.9 °F 30 in NNW 1 mph 10 mph 84 % 0 in
12:22 63 °F 58.1 °F 30 in WNW 2 mph 6 mph 84 % 0 in
12:32 63.7 °F 57.7 °F 30 in Calm   6 mph 81 % 0 in
12:37 63.9 °F 57.2 °F 30 in NW 4 mph 8 mph 79 % 0 in
12:42 63.9 °F 57.6 °F 30 in NW 6 mph 8 mph 80 % 0 in
12:47 63.7 °F 57.4 °F 30 in NW 3 mph 8 mph 80 % 0 in
12:52 63.7 °F 57.7 °F 30 in NW 3 mph 11 mph 81 % 0 in
13:02 63.7 °F 58.1 °F 30 in North 7 mph 11 mph 82 % 0 in
13:07 63.7 °F 57.7 °F 30 in NW 5 mph 7 mph 81 % 0 in
13:12 63.7 °F 57.7 °F 30 in WNW 6 mph 7 mph 81 % 0 in
13:17 63.7 °F 58.1 °F 30 in NW 2 mph 7 mph 82 % 0 in
13:22 63.9 °F 57.9 °F 30 in WNW 4 mph 8 mph 81 % 0 in
13:32 64 °F 58.1 °F 30 in NW 3 mph 6 mph 81 % 0 in
13:42 64.2 °F 57.9 °F 30 in WNW 8 mph 10 mph 80 % 0 in
13:52 64.2 °F 57.6 °F 30 in WNW 6 mph 9 mph 79 % 0 in
13:57 64.2 °F 57.6 °F 30 in NW 3 mph 9 mph 79 % 0 in
14:02 64.4 °F 57.7 °F 30 in NW 2 mph 11 mph 79 % 0 in
14:07 64.8 °F 57.4 °F 30 in WNW 8 mph 11 mph 77 % 0 in
14:12 65.1 °F 57.7 °F 30 in WNW 5 mph 11 mph 77 % 0 in
14:17 65.7 °F 57.9 °F 30 in NNW 2 mph 11 mph 76 % 0 in
14:27 66.4 °F 56.7 °F 30 in West 4 mph 11 mph 71 % 0 in
14:32 66.6 °F 56.8 °F 30 in WNW 8 mph 11 mph 71 % 0 in
14:42 66.4 °F 57.4 °F 30 in WNW 2 mph 11 mph 73 % 0 in
14:47 66.4 °F 57 °F 30 in SW 4 mph 11 mph 72 % 0 in
14:52 66.9 °F 58.3 °F 30 in WNW 3 mph 9 mph 74 % 0 in
15:02 67.8 °F 56.8 °F 30 in WNW 4 mph 9 mph 68 % 0 in
15:07 67.6 °F 57 °F 30 in Calm   8 mph 69 % 0 in
15:12 67.5 °F 57 °F 30 in WNW 4 mph 8 mph 69 % 0 in
15:17 67.1 °F 56.1 °F 30 in West 4 mph 8 mph 68 % 0 in
15:22 66.4 °F 57 °F 30 in WNW 7 mph 8 mph 72 % 0 in
15:27 65.5 °F 57 °F 30 in West 10 mph 13 mph 74 % 0 in
15:32 65.1 °F 57.7 °F 30 in West 4 mph 13 mph 77 % 0 in
15:37 65.1 °F 57.7 °F 30 in WNW 8 mph 13 mph 77 % 0 in
15:42 65.3 °F 57.9 °F 30 in West 4 mph 13 mph 77 % 0 in
15:47 65.5 °F 58.1 °F 30 in NW 5 mph 10 mph 77 % 0 in
15:52 65.8 °F 58.1 °F 30 in SW 4 mph 10 mph 76 % 0 in
16:02 65.7 °F 57.9 °F 30 in WNW 7 mph 8 mph 76 % 0 in
16:12 65.1 °F 57.7 °F 30 in Calm   12 mph 77 % 0 in
16:17 65.5 °F 57.7 °F 30 in West 2 mph 12 mph 76 % 0 in
16:22 66 °F 57.6 °F 30 in WNW 5 mph 11 mph 74 % 0 in
16:32 67.3 °F 57.9 °F 30 in WNW 9 mph 9 mph 72 % 0 in
16:37 68 °F 57.9 °F 30 in SW 2 mph 11 mph 70 % 0 in
16:52 68.7 °F 55.6 °F 30 in WNW 8 mph 14 mph 63 % 0 in
16:57 69.1 °F 56.5 °F 30 in NNW 5 mph 15 mph 64 % 0 in
17:02 69.3 °F 56.1 °F 30 in NNW 5 mph 15 mph 63 % 0 in
17:12 69.6 °F 55.9 °F 30 in WNW 8 mph 15 mph 62 % 0 in
17:17 69.4 °F 55.9 °F 30 in NW 4 mph 16 mph 62 % 0 in
17:22 69.3 °F 55.8 °F 30 in North 3 mph 16 mph 62 % 0 in
17:32 68.9 °F 55.8 °F 30 in WNW 6 mph 13 mph 63 % 0 in
17:37 69.1 °F 55.9 °F 30 in West 7 mph 13 mph 63 % 0 in
17:42 69.3 °F 56.1 °F 30 in West 5 mph 13 mph 63 % 0 in
17:47 70 °F 56.8 °F 30 in SW 7 mph 14 mph 63 % 0 in
17:52 70.2 °F 57 °F 30 in West 5 mph 15 mph 63 % 0 in
17:57 70.3 °F 56.7 °F 30 in NNW 6 mph 15 mph 62 % 0 in
18:02 70.2 °F 56.5 °F 30 in West 5 mph 15 mph 62 % 0 in
18:12 69.6 °F 55.9 °F 30 in NNW 7 mph 12 mph 62 % 0 in
18:17 69.4 °F 55.9 °F 30 in WNW 2 mph 12 mph 62 % 0 in
18:22 69.8 °F 56.1 °F 30 in WNW 4 mph 12 mph 62 % 0 in
18:32 70 °F 55.4 °F 30 in WNW 9 mph 16 mph 60 % 0 in
18:37 69.6 °F 55.6 °F 30 in WNW 5 mph 16 mph 61 % 0 in
18:42 69.6 °F 55.6 °F 30 in West 7 mph 16 mph 61 % 0 in
18:52 70 °F 55.4 °F 30 in WNW 7 mph 13 mph 60 % 0 in
19:02 70 °F 55.4 °F 30 in NW 3 mph 13 mph 60 % 0 in
19:12 69.6 °F 55.6 °F 30 in NNW 4 mph 12 mph 61 % 0 in
19:17 69.8 °F 55.8 °F 30 in WNW 1 mph 10 mph 61 % 0 in
19:22 70 °F 55.9 °F 30 in WNW 3 mph 10 mph 61 % 0 in
19:27 70 °F 55.9 °F 30 in Calm   8 mph 61 % 0 in
19:32 70.2 °F 55.2 °F 30 in WNW 10 mph 10 mph 59 % 0 in
19:42 70 °F 55.4 °F 30 in West 4 mph 13 mph 60 % 0 in
19:47 70 °F 55.9 °F 30 in NW 4 mph 12 mph 61 % 0 in
19:52 69.6 °F 55.6 °F 30 in WNW 3 mph 12 mph 61 % 0 in
20:02 69.1 °F 55.6 °F 30 in WNW 4 mph 10 mph 62 % 0 in
20:12 69.3 °F 56.1 °F 30 in WNW 5 mph 10 mph 63 % 0 in
20:17 68.9 °F 55.8 °F 30 in West 4 mph 9 mph 63 % 0 in
20:22 68.5 °F 55.9 °F 30 in NW 2 mph 8 mph 64 % 0 in
20:27 68.4 °F 56.1 °F 30 in WNW 2 mph 8 mph 65 % 0 in
20:32 68 °F 56.3 °F 30 in WNW 3 mph 8 mph 66 % 0 in
20:37 67.8 °F 56.5 °F 30 in WNW 1 mph 5 mph 67 % 0 in
20:47 67.3 °F 56.8 °F 30 in WNW 4 mph 5 mph 69 % 0 in
20:52 66.9 °F 56.8 °F 30 in West 2 mph 5 mph 70 % 0 in
20:57 66.7 °F 56.7 °F 30 in WSW 2 mph 4 mph 70 % 0 in
21:02 66.6 °F 57.2 °F 30 in West 1 mph 4 mph 72 % 0 in
21:12 65.8 °F 57.4 °F 30 in WSW 1 mph 4 mph 74 % 0 in
21:17 65.7 °F 57.6 °F 30 in West 2 mph 5 mph 75 % 0 in
21:22 65.5 °F 57.7 °F 30 in Calm   5 mph 76 % 0 in
21:32 64.9 °F 57.9 °F 30 in Calm   3 mph 78 % 0 in
21:37 64.8 °F 57.7 °F 30 in Calm   3 mph 78 % 0 in
21:42 64.6 °F 57.9 °F 30 in Calm   3 mph 79 % 0 in
21:52 64 °F 57.7 °F 30 in Calm   2 mph 80 % 0 in
21:57 63.9 °F 57.9 °F 30 in Calm   1 mph 81 % 0 in
22:02 63.3 °F 57.7 °F 30 in Calm   1 mph 82 % 0 in
22:12 63 °F 57.7 °F 30 in Calm   1 mph 83 % 0 in
22:22 62.6 °F 58.1 °F 30 in Calm   1 mph 85 % 0 in
22:32 62.2 °F 57.7 °F 30 in Calm   1 mph 85 % 0 in
22:37 62.2 °F 57.7 °F 30 in Calm   1 mph 85 % 0 in
22:42 62.2 °F 57.9 °F 30 in Calm   1 mph 86 % 0 in
22:47 62.2 °F 57.9 °F 30 in Calm   1 mph 86 % 0 in
22:52 62.2 °F 57.9 °F 30 in Calm     86 % 0 in
22:57 62.2 °F 57.9 °F 30 in Calm     86 % 0 in
23:02 62.2 °F 57.9 °F 30 in Calm     86 % 0 in
23:07 61.7 °F 57.4 °F 30 in Calm     86 % 0 in
23:17 60.8 °F 57.2 °F 30 in Calm     88 % 0 in
23:22 60.6 °F 57.4 °F 30 in Calm     89 % 0 in
23:27 61 °F 57.7 °F 30 in Calm     89 % 0 in
23:32 61 °F 57.7 °F 30 in Calm     89 % 0 in
23:37 60.6 °F 57 °F 30 in Calm     88 % 0 in
23:42 60.3 °F 56.7 °F 30 in Calm     88 % 0 in
23:47 60.1 °F 56.8 °F 30 in Calm     89 % 0 in
23:52 60.1 °F 57.2 °F 30 in Calm     90 % 0 in
23:57 60.1 °F 57.2 °F 30 in Calm   1 mph 90 % 0 in
Meteo18
Compliments of Weather Underground - 4 mb

Script developed by  Jim McMurry - jmcmurry@mwt.net Adapted for the template by  Wim van der Kuil - Leuven-Template.eu

You find our weather info also at:

European Weather Network

Weather Underground

Equipment we use:

Weather-station
Davis Vue

Weather-program
Meteohub

Weather-server
Raspberry PI 2 B+

Provider
1 and 1

Davis Vue

Meteohub

Raspberry PI 2 B+

1 and 1